Time;durP1;ratioP1;P1;durP2;ratioP2;P2;SDS_P1;SDS_P2;PMS_P1;PMS_P2;Temp;Humidity;BMP_temperature;BMP_pressure;BME280_temperature;BME280_humidity;BME280_pressure;Samples;Min_cycle;Max_cycle;Signal;HPM_P1;HPM_P2
2022/10/27 00:01:33;;;;;;;;;;;;;;;15.23;64.27;101299.53;4974889;28;19960;-62
2022/10/27 00:03:59;;;;;;;;;;;;;;;15.31;64.24;101291.38;4974909;28;19925;-62
2022/10/27 00:06:24;;;;;;;;;;;;;;;15.37;64.23;101296.53;4974990;28;19977;-61
2022/10/27 00:08:50;;;;;;;;;;;;;;;15.36;63.55;101288.59;4975013;28;19929;-61
2022/10/27 00:11:15;;;;;;;;;;;;;;;15.44;63.82;101289.25;4975021;28;20444;-62
2022/10/27 00:13:41;;;;;;;;;;;;;;;15.42;63.47;101288.44;4974697;28;19972;-61
2022/10/27 00:16:08;;;;;;;;;;;;;;;15.40;63.61;101285.84;4974759;28;19934;-61
2022/10/27 00:18:33;;;;;;;;;;;;;;;15.46;63.37;101290.09;4974245;28;19954;-61
2022/10/27 00:21:03;;;;;;;;;;;;;;;15.47;63.65;101292.69;4973539;28;19966;-61
2022/10/27 00:23:28;;;;;;;;;;;;;;;15.49;63.33;101295.31;4974830;28;19918;-61
2022/10/27 00:25:54;;;;;;;;;;;;;;;15.46;63.22;101295.41;5006095;28;19976;-61
2022/10/27 00:28:20;;;;;;;;;;;;;;;15.42;63.51;101294.59;4974870;28;20293;-61
2022/10/27 00:30:45;;;;;;;;;;;;;;;15.46;63.32;101296.25;4978386;28;19952;-61
2022/10/27 00:33:10;;;;;;;;;;;;;;;15.50;63.10;101295.25;4974252;28;20370;-61
2022/10/27 00:35:36;;;;;;;;;;;;;;;15.50;63.08;101295.25;4974877;28;19918;-61
2022/10/27 00:38:01;;;;;;;;;;;;;;;15.46;63.04;101295.41;4974806;28;19923;-61
2022/10/27 00:40:26;;;;;;;;;;;;;;;15.50;62.90;101281.16;4974814;28;20358;-61
2022/10/27 00:42:52;;;;;;;;;;;;;;;15.55;62.90;101288.97;4974644;28;19921;-61
2022/10/27 00:45:17;;;;;;;;;;;;;;;15.55;62.93;101283.69;4974328;28;19973;-62
2022/10/27 00:47:43;;;;;;;;;;;;;;;15.51;62.86;101288.19;4974362;28;20416;-61
2022/10/27 00:50:13;;;;;;;;;;;;;;;15.53;62.81;101289.88;4974419;28;19924;-62
2022/10/27 00:52:43;;;;;;;;;;;;;;;15.29;63.33;101293.22;4957256;28;20478;-61
2022/10/27 00:55:14;;;;;;;;;;;;;;;15.49;63.08;101297.97;4960344;28;19926;-61
2022/10/27 00:57:41;;;;;;;;;;;;;;;15.41;62.81;101297.31;4974501;28;19914;-62
2022/10/27 01:00:06;;;;;;;;;;;;;;;15.37;63.09;101296.53;4974407;28;19914;-61
2022/10/27 01:02:32;;;;;;;;;;;;;;;15.35;63.07;101298.31;4974104;28;19972;-61
2022/10/27 01:05:07;;;;;;;;;;;;;;;15.39;63.49;101299.13;4973631;28;19922;-60
2022/10/27 01:07:32;;;;;;;;;;;;;;;15.58;62.77;101299.50;4975510;28;19918;-62
2022/10/27 01:09:58;;;;;;;;;;;;;;;15.63;62.52;101289.63;4977308;28;19925;-61
2022/10/27 01:12:24;;;;;;;;;;;;;;;15.55;62.42;101295.13;4977698;28;19941;-61
2022/10/27 01:14:49;;;;;;;;;;;;;;;15.56;62.51;101290.69;4977559;28;19918;-61
2022/10/27 01:17:18;;;;;;;;;;;;;;;15.58;62.39;101288.91;4978225;28;19914;-61
2022/10/27 01:19:54;;;;;;;;;;;;;;;15.50;62.44;101282.03;4977770;28;20004;-61
2022/10/27 01:22:34;;;;;;;;;;;;;;;15.58;62.36;101297.72;4981213;28;19921;-61
2022/10/27 01:24:59;;;;;;;;;;;;;;;15.57;62.42;101293.31;4977689;28;20381;-60
2022/10/27 01:27:25;;;;;;;;;;;;;;;15.59;62.35;101290.63;4977428;28;19922;-60
2022/10/27 01:29:53;;;;;;;;;;;;;;;15.56;62.39;101291.59;4977344;28;19920;-61
2022/10/27 01:32:26;;;;;;;;;;;;;;;15.67;62.15;101288.66;4977195;28;19918;-61
2022/10/27 01:35:11;;;;;;;;;;;;;;;15.71;61.83;101295.59;4977599;28;19922;-61
2022/10/27 01:37:39;;;;;;;;;;;;;;;15.73;62.26;101293.81;4977240;28;20303;-61
2022/10/27 01:40:11;;;;;;;;;;;;;;;15.70;61.85;101289.44;4979007;28;20484;-60
2022/10/27 01:42:43;;;;;;;;;;;;;;;15.63;62.13;101297.56;4966844;28;20289;-60
2022/10/27 01:45:10;;;;;;;;;;;;;;;15.56;62.58;101291.59;4977751;28;19918;-61
2022/10/27 01:47:36;;;;;;;;;;;;;;;15.64;62.22;101288.72;4977055;28;20012;-61
2022/10/27 01:50:02;;;;;;;;;;;;;;;15.62;62.13;101286.09;4976572;28;20076;-61
2022/10/27 01:52:36;;;;;;;;;;;;;;;15.70;62.12;101284.16;4976946;28;19918;-61
2022/10/27 01:55:01;;;;;;;;;;;;;;;15.66;61.99;101282.50;4977247;28;19918;-61
2022/10/27 01:57:27;;;;;;;;;;;;;;;15.67;61.83;101276.28;4976953;28;19932;-61
2022/10/27 02:00:06;;;;;;;;;;;;;;;15.63;62.06;101285.19;4977095;28;19961;-61
2022/10/27 02:02:31;;;;;;;;;;;;;;;15.61;62.26;101279.09;4977024;28;19914;-60
2022/10/27 02:05:15;;;;;;;;;;;;;;;15.58;62.22;101283.59;4976567;28;20338;-61
2022/10/27 02:08:04;;;;;;;;;;;;;;;15.58;62.09;101279.16;4976896;28;19921;-62
2022/10/27 02:10:41;;;;;;;;;;;;;;;15.55;62.33;101273.09;4976606;28;19914;-61
2022/10/27 02:13:07;;;;;;;;;;;;;;;15.52;62.51;101279.34;4975505;28;19985;-62
2022/10/27 02:15:36;;;;;;;;;;;;;;;15.53;62.34;101274.00;4977003;28;19936;-61
2022/10/27 02:18:04;;;;;;;;;;;;;;;15.45;62.56;101272.47;4976259;28;19918;-61
2022/10/27 02:20:32;;;;;;;;;;;;;;;15.37;62.87;101272.69;4975865;28;19936;-61
2022/10/27 02:22:59;;;;;;;;;;;;;;;15.49;62.75;101275.00;5006818;28;20290;-61
2022/10/27 02:25:28;;;;;;;;;;;;;;;15.52;62.63;101280.22;4976528;28;19947;-61
2022/10/27 02:27:57;;;;;;;;;;;;;;;15.52;62.67;101277.56;4976496;28;19914;-61
2022/10/27 02:30:22;;;;;;;;;;;;;;;15.49;62.59;101285.59;5006392;28;19973;-61
2022/10/27 02:32:47;;;;;;;;;;;;;;;15.49;62.72;101280.28;4976207;28;19918;-61
2022/10/27 02:35:14;;;;;;;;;;;;;;;15.57;62.63;101281.88;4975251;28;19929;-61
2022/10/27 02:37:41;;;;;;;;;;;;;;;15.59;62.51;101280.03;4976264;28;19914;-59
2022/10/27 02:40:06;;;;;;;;;;;;;;;15.64;62.45;101279.00;4976501;28;19914;-61
2022/10/27 02:42:32;;;;;;;;;;;;;;;15.61;62.48;101273.78;4975023;28;19918;-60
2022/10/27 02:44:57;;;;;;;;;;;;;;;15.68;62.49;101280.69;4975919;28;20294;-60
2022/10/27 02:47:22;;;;;;;;;;;;;;;15.71;62.41;101283.22;4975768;28;19922;-60
2022/10/27 02:49:48;;;;;;;;;;;;;;;15.76;62.48;101285.78;4975680;28;19922;-61
2022/10/27 02:52:13;;;;;;;;;;;;;;;15.76;62.59;101289.28;4975965;28;20282;-61
2022/10/27 02:54:39;;;;;;;;;;;;;;;15.62;62.60;101287.91;4975566;28;20245;-61
2022/10/27 02:57:04;;;;;;;;;;;;;;;15.64;63.00;101288.72;4975957;28;20016;-61
2022/10/27 02:59:30;;;;;;;;;;;;;;;15.59;62.97;101287.97;4975677;28;19914;-60
2022/10/27 03:01:55;;;;;;;;;;;;;;;15.53;63.31;101292.53;4974345;28;19922;-61
2022/10/27 03:04:20;;;;;;;;;;;;;;;15.58;63.01;101288.91;4975996;28;19965;-61
2022/10/27 03:06:46;;;;;;;;;;;;;;;15.60;63.46;101293.25;4974705;28;20413;-61
2022/10/27 03:09:11;;;;;;;;;;;;;;;15.61;63.49;101291.47;4975605;28;19920;-61
2022/10/27 03:11:36;;;;;;;;;;;;;;;15.59;63.52;101291.50;4974842;28;19921;-61
2022/10/27 03:14:01;;;;;;;;;;;;;;;15.67;63.59;101286.88;4975524;28;19918;-62
2022/10/27 03:16:27;;;;;;;;;;;;;;;15.61;63.70;101286.16;4973441;28;19925;-61
2022/10/27 03:18:52;;;;;;;;;;;;;;;15.58;63.75;101286.25;4975506;28;19965;-61
2022/10/27 03:21:17;;;;;;;;;;;;;;;15.44;63.16;101291.91;4975413;28;20396;-61
2022/10/27 03:23:43;;;;;;;;;;;;;;;15.44;63.74;101287.50;4974457;28;20009;-61
2022/10/27 03:26:09;;;;;;;;;;;;;;;15.43;63.96;101285.75;4975192;28;20005;-61
2022/10/27 03:28:35;;;;;;;;;;;;;;;15.48;63.75;101291.81;4975613;28;20362;-61
2022/10/27 03:31:00;;;;;;;;;;;;;;;15.38;63.91;101294.75;4973822;28;19992;-61
2022/10/27 03:33:26;;;;;;;;;;;;;;;15.39;63.97;101299.97;4975118;28;19914;-61
2022/10/27 03:35:51;;;;;;;;;;;;;;;15.40;63.99;101300.84;4975391;28;20052;-61
2022/10/27 03:38:17;;;;;;;;;;;;;;;15.34;63.93;101301.91;4974542;28;19929;-61
2022/10/27 03:40:42;;;;;;;;;;;;;;;15.46;63.41;101301.56;4975170;28;19918;-61
2022/10/27 03:43:08;;;;;;;;;;;;;;;15.47;63.63;101294.47;4975357;28;19914;-61
2022/10/27 03:45:33;;;;;;;;;;;;;;;15.44;63.52;101291.91;4975558;28;19934;-61
2022/10/27 03:48:00;;;;;;;;;;;;;;;15.34;63.61;101296.59;4975143;28;20305;-61
2022/10/27 03:50:25;;;;;;;;;;;;;;;15.41;63.41;101300.81;4973369;28;20903;-61
2022/10/27 03:52:51;;;;;;;;;;;;;;;15.37;63.49;101293.00;4975461;28;20069;-61
2022/10/27 03:55:16;;;;;;;;;;;;;;;15.28;63.53;101296.78;4975160;28;20329;-61
2022/10/27 03:57:41;;;;;;;;;;;;;;;15.31;63.34;101294.03;4975402;28;19952;-61
2022/10/27 04:00:07;;;;;;;;;;;;;;;15.27;63.68;101290.59;4975134;28;20013;-61
2022/10/27 04:02:32;;;;;;;;;;;;;;;15.33;63.60;101288.72;4975292;28;19918;-60
2022/10/27 04:04:57;;;;;;;;;;;;;;;15.36;63.39;101297.44;4973457;28;19918;-61
2022/10/27 04:07:23;;;;;;;;;;;;;;;15.37;63.16;101301.81;4976319;28;20262;-61
2022/10/27 04:09:48;;;;;;;;;;;;;;;15.27;63.46;101308.25;4984707;28;20388;-60
2022/10/27 04:12:13;;;;;;;;;;;;;;;15.27;63.47;101305.59;4973921;28;19918;-61
2022/10/27 04:14:39;;;;;;;;;;;;;;;15.31;63.22;101309.03;4974178;28;20360;-61
2022/10/27 04:17:04;;;;;;;;;;;;;;;15.24;63.47;101314.53;4974686;28;20433;-60
2022/10/27 04:19:29;;;;;;;;;;;;;;;15.27;63.40;101317.06;4974724;28;19961;-60
2022/10/27 04:21:55;;;;;;;;;;;;;;;15.27;63.07;101313.56;4973167;28;20309;-61
2022/10/27 04:24:21;;;;;;;;;;;;;;;15.28;63.02;101321.47;4972474;28;20028;-61
2022/10/27 04:26:46;;;;;;;;;;;;;;;15.32;63.25;101324.91;4973896;28;20049;-61
2022/10/27 04:29:11;;;;;;;;;;;;;;;15.35;62.75;101319.50;4973203;28;19922;-60
2022/10/27 04:31:37;;;;;;;;;;;;;;;15.37;62.53;101322.13;4973747;28;19922;-60
2022/10/27 04:34:02;;;;;;;;;;;;;;;15.36;62.34;101333.63;4971943;28;19922;-60
2022/10/27 04:36:28;;;;;;;;;;;;;;;15.31;62.53;101338.16;4970680;28;19922;-60
2022/10/27 04:38:53;;;;;;;;;;;;;;;15.26;62.40;101336.50;4972822;28;20000;-60
2022/10/27 04:41:18;;;;;;;;;;;;;;;15.32;61.92;101338.16;4973619;28;19929;-59
2022/10/27 04:43:47;;;;;;;;;;;;;;;15.33;62.29;101339.88;4975137;28;19922;-60
2022/10/27 04:46:12;;;;;;;;;;;;;;;15.33;62.08;101331.06;4977175;28;19960;-61
2022/10/27 04:48:37;;;;;;;;;;;;;;;15.31;61.89;101343.47;4976605;28;19961;-60
2022/10/27 04:51:03;;;;;;;;;;;;;;;15.36;62.53;101331.88;4976498;28;20060;-61
2022/10/27 04:53:28;;;;;;;;;;;;;;;15.35;62.15;101335.41;4976908;28;20384;-60
2022/10/27 04:55:53;;;;;;;;;;;;;;;15.41;62.02;101340.53;4976513;28;19926;-61
2022/10/27 04:58:19;;;;;;;;;;;;;;;15.45;62.23;101338.69;4977448;28;19922;-61
2022/10/27 05:00:44;;;;;;;;;;;;;;;15.47;62.38;101343.00;4976659;28;20001;-61
2022/10/27 05:03:09;;;;;;;;;;;;;;;15.47;62.37;101342.16;4977471;28;19922;-61
2022/10/27 05:05:35;;;;;;;;;;;;;;;15.42;62.37;101341.41;4976173;28;19921;-61
2022/10/27 05:08:01;;;;;;;;;;;;;;;15.30;63.70;101345.25;4981132;28;20306;-62
2022/10/27 05:10:28;;;;;;;;;;;;;;;15.36;62.43;101346.84;4982919;28;20329;-61
2022/10/27 05:12:53;;;;;;;;;;;;;;;15.35;62.43;101350.41;4976686;28;19918;-61
2022/10/27 05:15:18;;;;;;;;;;;;;;;15.32;62.42;101350.50;4976939;28;19972;-61
2022/10/27 05:17:44;;;;;;;;;;;;;;;15.33;62.81;101350.47;4969670;28;20366;-61
2022/10/27 05:20:09;;;;;;;;;;;;;;;15.29;62.57;101351.47;4978195;28;19925;-62
2022/10/27 05:22:34;;;;;;;;;;;;;;;15.24;62.45;101342.75;4976897;28;19988;-62
2022/10/27 05:25:00;;;;;;;;;;;;;;;15.17;62.70;101346.47;4975716;28;19925;-63
2022/10/27 05:27:25;;;;;;;;;;;;;;;15.23;62.96;101352.47;4978670;28;19925;-63
2022/10/27 05:29:51;;;;;;;;;;;;;;;15.15;62.53;101364.16;4977449;28;19918;-63
2022/10/27 05:32:16;;;;;;;;;;;;;;;15.00;63.38;101363.66;4974704;28;19922;-63
2022/10/27 05:34:42;;;;;;;;;;;;;;;15.09;63.42;101364.34;4977475;28;19973;-61
2022/10/27 05:37:07;;;;;;;;;;;;;;;15.05;63.02;101368.81;4979845;28;20289;-61
2022/10/27 05:39:32;;;;;;;;;;;;;;;14.99;63.22;101369.81;4977895;28;19924;-61
2022/10/27 05:41:58;;;;;;;;;;;;;;;15.10;63.16;101360.78;4979949;28;19922;-61
2022/10/27 05:44:23;;;;;;;;;;;;;;;15.15;62.92;101364.16;4984326;28;19972;-62
2022/10/27 05:46:48;;;;;;;;;;;;;;;15.19;63.09;101368.47;4977021;28;19969;-61
2022/10/27 05:49:14;;;;;;;;;;;;;;;15.18;63.11;101374.69;4977478;28;19929;-61
2022/10/27 05:51:39;;;;;;;;;;;;;;;15.20;63.19;101378.16;4977294;28;20016;-62
2022/10/27 05:54:04;;;;;;;;;;;;;;;15.27;62.86;101379.75;4975416;28;19926;-61
2022/10/27 05:56:29;;;;;;;;;;;;;;;15.28;62.61;101382.38;4988176;28;20341;-62
2022/10/27 05:58:55;;;;;;;;;;;;;;;15.26;62.53;101380.66;4977499;28;20024;-62
2022/10/27 06:01:20;;;;;;;;;;;;;;;15.23;62.52;101380.72;4977143;28;20386;-62
2022/10/27 06:03:45;;;;;;;;;;;;;;;15.27;62.37;101377.09;4976391;28;19934;-62
2022/10/27 06:06:11;;;;;;;;;;;;;;;15.29;62.49;101383.22;4975388;28;19922;-62
2022/10/27 06:08:36;;;;;;;;;;;;;;;15.34;62.17;101386.63;4984488;28;19914;-62
2022/10/27 06:11:02;;;;;;;;;;;;;;;15.36;62.21;101384.81;4975658;28;19974;-62
2022/10/27 06:13:28;;;;;;;;;;;;;;;15.37;62.60;101386.56;4959139;28;20391;-62
2022/10/27 06:15:54;;;;;;;;;;;;;;;15.41;61.62;101392.66;4967079;28;19925;-62
2022/10/27 06:18:19;;;;;;;;;;;;;;;15.38;61.65;101390.06;4975594;28;19918;-61
2022/10/27 06:20:45;;;;;;;;;;;;;;;15.46;61.72;101388.94;4973770;28;19926;-61
2022/10/27 06:23:10;;;;;;;;;;;;;;;15.55;61.83;101379.91;4975408;28;19922;-62
2022/10/27 06:25:35;;;;;;;;;;;;;;;15.66;61.97;101371.69;4975775;28;19926;-64
2022/10/27 06:28:00;;;;;;;;;;;;;;;15.70;61.67;101373.34;4975308;28;19981;-62
2022/10/27 06:30:26;;;;;;;;;;;;;;;15.65;61.37;101380.56;4975260;28;19926;-61
2022/10/27 06:32:52;;;;;;;;;;;;;;;15.68;61.47;101375.19;4975124;28;20051;-61
2022/10/27 06:35:17;;;;;;;;;;;;;;;15.72;61.54;101371.56;4975678;28;20378;-62
2022/10/27 06:37:43;;;;;;;;;;;;;;;15.37;61.03;101370.66;4974263;28;20374;-62
2022/10/27 06:40:09;;;;;;;;;;;;;;;15.54;61.00;101375.50;4975541;28;19977;-62
2022/10/27 06:42:35;;;;;;;;;;;;;;;15.60;61.34;101380.66;4975747;28;19926;-63
2022/10/27 06:45:01;;;;;;;;;;;;;;;15.75;61.04;101376.75;4975387;28;19918;-62
2022/10/27 06:47:26;;;;;;;;;;;;;;;15.81;60.79;101373.94;4975589;28;19922;-63
2022/10/27 06:49:51;;;;;;;;;;;;;;;15.81;60.62;101371.28;4972559;28;19922;-62
2022/10/27 06:52:17;;;;;;;;;;;;;;;15.86;60.31;101372.03;4975232;28;19922;-61
2022/10/27 06:54:42;;;;;;;;;;;;;;;15.91;59.98;101370.09;4975614;28;20396;-61
2022/10/27 06:57:08;;;;;;;;;;;;;;;15.98;59.88;101376.13;4975089;28;19925;-61
2022/10/27 06:59:33;;;;;;;;;;;;;;;16.04;59.25;101386.56;4975505;28;20388;-62
2022/10/27 07:01:58;;;;;;;;;;;;;;;15.85;59.06;101395.94;4974947;28;19922;-63
2022/10/27 07:04:24;;;;;;;;;;;;;;;15.57;59.95;101415.19;4974984;28;19926;-61
2022/10/27 07:06:49;;;;;;;;;;;;;;;15.58;60.31;101414.25;4974788;28;19929;-62
2022/10/27 07:09:14;;;;;;;;;;;;;;;15.63;60.48;101411.47;4975498;28;19922;-62
2022/10/27 07:11:40;;;;;;;;;;;;;;;15.74;60.26;101414.75;4975048;28;19922;-61
2022/10/27 07:14:05;;;;;;;;;;;;;;;15.76;60.18;101418.25;4975200;28;20194;-62
2022/10/27 07:16:30;;;;;;;;;;;;;;;15.75;60.19;101413.84;4975055;28;19922;-62
2022/10/27 07:18:55;;;;;;;;;;;;;;;15.82;59.71;101419.84;4974821;28;19969;-63
2022/10/27 07:21:21;;;;;;;;;;;;;;;15.84;60.28;101418.91;4975082;28;20287;-61
2022/10/27 07:23:46;;;;;;;;;;;;;;;15.89;59.68;101427.59;4974534;28;19938;-61
2022/10/27 07:26:11;;;;;;;;;;;;;;;15.68;60.18;101426.41;4974717;28;20397;-63
2022/10/27 07:28:37;;;;;;;;;;;;;;;15.87;60.55;101441.78;4974655;28;19922;-62
2022/10/27 07:31:02;;;;;;;;;;;;;;;15.93;60.17;101431.91;5006243;28;19968;-62
2022/10/27 07:33:27;;;;;;;;;;;;;;;16.02;59.77;101429.00;4974671;28;19999;-62
2022/10/27 07:35:53;;;;;;;;;;;;;;;16.12;59.47;101444.66;4974501;28;19929;-62
2022/10/27 07:38:18;;;;;;;;;;;;;;;15.89;60.62;101454.09;4974458;28;19993;-63
2022/10/27 07:40:44;;;;;;;;;;;;;;;15.75;60.11;101453.59;4974447;28;19918;-62
2022/10/27 07:43:09;;;;;;;;;;;;;;;15.71;60.21;101454.56;4974697;28;19926;-61
2022/10/27 07:45:39;;;;;;;;;;;;;;;15.76;60.34;101452.69;4974893;28;20016;-61
2022/10/27 07:48:05;;;;;;;;;;;;;;;15.81;60.17;101450.78;4974043;28;19922;-61
2022/10/27 07:50:32;;;;;;;;;;;;;;;16.02;60.23;101444.91;4974229;28;19918;-63
2022/10/27 07:52:58;;;;;;;;;;;;;;;16.23;59.87;101443.44;4974193;28;19926;-61
2022/10/27 07:55:24;;;;;;;;;;;;;;;16.43;59.13;101440.19;4974648;28;19918;-62
2022/10/27 07:58:06;;;;;;;;;;;;;;;16.54;58.66;101453.16;4974329;28;20354;-63
2022/10/27 08:00:33;;;;;;;;;;;;;;;16.64;58.41;101452.00;4970501;28;19937;-62
2022/10/27 08:02:59;;;;;;;;;;;;;;;16.67;58.03;101448.34;4972817;28;19925;-63
2022/10/27 08:05:24;;;;;;;;;;;;;;;16.83;57.44;101454.97;4974668;28;19929;-61
2022/10/27 08:07:50;;;;;;;;;;;;;;;16.94;58.06;101447.53;4974264;28;19922;-61
2022/10/27 08:10:15;;;;;;;;;;;;;;;17.10;57.84;101455.03;4974180;28;19926;-61
2022/10/27 08:12:43;;;;;;;;;;;;;;;17.20;57.56;101449.41;4972948;28;19922;-62
2022/10/27 08:15:09;;;;;;;;;;;;;;;17.26;57.04;101455.41;4973936;28;20350;-62
2022/10/27 08:17:35;;;;;;;;;;;;;;;16.98;56.52;101449.19;4976279;28;20008;-62
2022/10/27 08:20:00;;;;;;;;;;;;;;;16.99;57.55;101458.91;4980400;28;19926;-63
2022/10/27 08:22:25;;;;;;;;;;;;;;;16.73;57.74;101477.41;4980464;28;20432;-61
2022/10/27 08:24:51;;;;;;;;;;;;;;;16.86;57.81;101470.81;4980534;28;19922;-62
2022/10/27 08:27:16;;;;;;;;;;;;;;;16.97;57.42;101470.50;4979185;28;19926;-62
2022/10/27 08:29:41;;;;;;;;;;;;;;;17.16;57.54;101484.94;4980944;28;19921;-62
2022/10/27 08:32:08;;;;;;;;;;;;;;;16.96;58.10;101500.63;4980321;28;19922;-62
2022/10/27 08:34:33;;;;;;;;;;;;;;;16.41;58.11;101492.44;4979235;28;19925;-62
2022/10/27 08:36:58;;;;;;;;;;;;;;;16.56;58.43;101482.31;4980699;28;19918;-62
2022/10/27 08:39:24;;;;;;;;;;;;;;;16.73;58.60;101480.06;4978737;28;19922;-62
2022/10/27 08:41:49;;;;;;;;;;;;;;;16.80;57.55;101481.63;4980375;28;19972;-63
2022/10/27 08:44:14;;;;;;;;;;;;;;;17.09;57.67;101478.06;4980088;28;19925;-62
2022/10/27 08:46:39;;;;;;;;;;;;;;;17.05;56.49;101478.22;4980535;28;19945;-62
2022/10/27 08:49:08;;;;;;;;;;;;;;;17.46;57.11;101483.06;4979942;28;19960;-62
2022/10/27 08:51:34;;;;;;;;;;;;;;;17.11;57.18;101483.31;4980352;28;19922;-63
2022/10/27 08:54:00;;;;;;;;;;;;;;;17.29;58.07;101481.88;4978507;28;19988;-62
2022/10/27 08:56:30;;;;;;;;;;;;;;;17.33;58.06;101476.41;4978731;28;19930;-61
2022/10/27 08:58:55;;;;;;;;;;;;;;;17.36;56.76;101486.09;4980127;28;20375;-62
2022/10/27 09:01:20;;;;;;;;;;;;;;;17.32;57.89;101482.66;4979979;28;19976;-62
2022/10/27 09:04:01;;;;;;;;;;;;;;;17.60;57.78;101484.41;4978588;28;19922;-62
2022/10/27 09:06:29;;;;;;;;;;;;;;;17.70;56.82;101483.16;4980044;28;19932;-62
2022/10/27 09:09:12;;;;;;;;;;;;;;;17.93;56.69;101477.97;4980783;28;19953;-62
2022/10/27 09:11:43;;;;;;;;;;;;;;;18.18;56.43;101472.63;4979680;28;19940;-61
2022/10/27 09:14:22;;;;;;;;;;;;;;;18.30;57.02;101481.97;4979580;28;19925;-62
2022/10/27 09:16:51;;;;;;;;;;;;;;;18.28;55.82;101472.34;4983090;28;19918;-62
2022/10/27 09:19:21;;;;;;;;;;;;;;;18.36;55.45;101464.94;4977958;28;20379;-61
2022/10/27 09:21:48;;;;;;;;;;;;;;;18.27;56.07;101466.13;4976173;28;20397;-62
2022/10/27 09:24:16;;;;;;;;;;;;;;;18.42;55.37;101472.69;4979605;28;19918;-62
2022/10/27 09:26:42;;;;;;;;;;;;;;;18.39;56.47;101475.44;4980322;28;19926;-62
2022/10/27 09:29:15;;;;;;;;;;;;;;;18.37;55.61;101475.50;4978001;28;19922;-62
2022/10/27 09:31:40;;;;;;;;;;;;;;;18.35;55.90;101471.16;4976870;28;20013;-62
2022/10/27 09:34:15;;;;;;;;;;;;;;;18.40;55.99;101471.88;4976570;28;20025;-62
2022/10/27 09:36:40;;;;;;;;;;;;;;;18.46;55.94;101472.50;4977158;28;19977;-62
2022/10/27 09:39:07;;;;;;;;;;;;;;;18.43;55.73;101475.31;4977026;28;20369;-62
2022/10/27 09:41:32;;;;;;;;;;;;;;;18.58;56.50;101471.19;4975845;28;19924;-62
2022/10/27 09:43:59;;;;;;;;;;;;;;;18.67;56.52;101475.28;4976732;28;19948;-63
2022/10/27 09:46:26;;;;;;;;;;;;;;;18.89;55.86;101480.69;4976510;28;19953;-62
2022/10/27 09:48:54;;;;;;;;;;;;;;;19.09;55.71;101483.44;4976402;28;19940;-63
2022/10/27 09:51:21;;;;;;;;;;;;;;;19.26;55.34;101480.09;4976044;28;19926;-62
2022/10/27 09:53:51;;;;;;;;;;;;;;;19.28;55.33;101472.06;4976931;28;20021;-62
2022/10/27 09:56:27;;;;;;;;;;;;;;;19.41;55.61;101476.81;4976671;28;19928;-63
2022/10/27 09:58:59;;;;;;;;;;;;;;;19.62;55.04;101482.22;4975840;28;20166;-62
2022/10/27 10:01:25;;;;;;;;;;;;;;;19.73;54.39;101485.31;4975819;28;19953;-62
2022/10/27 10:03:52;;;;;;;;;;;;;;;19.79;54.07;101478.81;4976690;28;19918;-62
2022/10/27 10:06:34;;;;;;;;;;;;;;;19.76;54.35;101487.84;4974700;28;20410;-62
2022/10/27 10:09:19;;;;;;;;;;;;;;;19.81;54.22;101483.16;4962707;28;19918;-62
2022/10/27 10:11:45;;;;;;;;;;;;;;;19.94;53.94;101488.84;4975720;28;19926;-61
2022/10/27 10:14:18;;;;;;;;;;;;;;;19.85;53.40;101490.09;4963254;28;19961;-62
2022/10/27 10:16:44;;;;;;;;;;;;;;;19.84;53.55;101493.72;4976402;28;19921;-62
2022/10/27 10:19:35;;;;;;;;;;;;;;;19.79;53.78;101485.06;4976055;28;20069;-63
2022/10/27 10:22:00;;;;;;;;;;;;;;;19.77;53.95;101486.91;4974889;28;19940;-62
2022/10/27 10:24:28;;;;;;;;;;;;;;;19.87;53.90;101487.41;4976240;28;20389;-62
2022/10/27 10:26:55;;;;;;;;;;;;;;;19.84;53.83;101488.38;4974592;28;19957;-63
2022/10/27 10:29:26;;;;;;;;;;;;;;;19.88;53.96;101494.47;4976165;28;19918;-63
2022/10/27 10:32:09;;;;;;;;;;;;;;;19.94;53.92;101489.69;4975780;28;19918;-63
2022/10/27 10:34:35;;;;;;;;;;;;;;;20.01;54.20;101489.44;4974698;28;20005;-62
2022/10/27 10:37:00;;;;;;;;;;;;;;;20.05;53.96;101491.06;4975366;28;20016;-62
2022/10/27 10:39:27;;;;;;;;;;;;;;;20.05;53.98;101497.25;4975960;28;19918;-62
2022/10/27 10:42:11;;;;;;;;;;;;;;;20.03;54.33;101493.81;4975444;28;20259;-61
2022/10/27 10:44:36;;;;;;;;;;;;;;;20.06;53.75;101493.63;4971447;28;19925;-61
2022/10/27 10:47:03;;;;;;;;;;;;;;;19.97;54.08;101498.53;4975353;28;19922;-61
2022/10/27 10:49:30;;;;;;;;;;;;;;;19.86;54.31;101493.63;4975271;28;19925;-62
2022/10/27 10:51:57;;;;;;;;;;;;;;;19.63;55.21;101505.28;4974676;28;20012;-63
2022/10/27 10:54:27;;;;;;;;;;;;;;;19.26;56.02;101501.41;4975316;28;19964;-63
2022/10/27 10:56:53;;;;;;;;;;;;;;;19.25;56.50;101498.81;4975222;28;19918;-63
2022/10/27 10:59:20;;;;;;;;;;;;;;;19.29;56.60;101506.63;4975147;28;20431;-61
2022/10/27 11:01:53;;;;;;;;;;;;;;;19.33;56.54;101508.22;4973785;28;19918;-62
2022/10/27 11:04:22;;;;;;;;;;;;;;;19.59;56.12;101508.97;4975473;28;20025;-62
2022/10/27 11:06:59;;;;;;;;;;;;;;;19.96;55.49;101502.13;4974151;28;20427;-63
2022/10/27 11:09:27;;;;;;;;;;;;;;;19.94;55.05;101504.84;4968991;28;20378;-62
2022/10/27 11:11:53;;;;;;;;;;;;;;;20.11;55.07;101506.81;4975023;28;19924;-62
2022/10/27 11:14:19;;;;;;;;;;;;;;;20.27;54.83;101513.19;4975201;28;20065;-62
2022/10/27 11:16:55;;;;;;;;;;;;;;;20.19;54.82;101512.69;4975096;28;20344;-62
2022/10/27 11:19:21;;;;;;;;;;;;;;;20.26;55.24;101506.09;4974547;28;19981;-62
2022/10/27 11:21:55;;;;;;;;;;;;;;;20.43;55.00;101503.56;4975062;28;19926;-62
2022/10/27 11:24:29;;;;;;;;;;;;;;;20.22;55.32;101498.31;4974128;28;20282;-62
2022/10/27 11:26:59;;;;;;;;;;;;;;;20.27;55.19;101494.53;4964935;28;20000;-61
2022/10/27 11:29:26;;;;;;;;;;;;;;;20.23;55.51;101503.59;4968576;28;19964;-61
2022/10/27 11:32:08;;;;;;;;;;;;;;;20.30;55.71;101507.72;4974838;28;19918;-61
2022/10/27 11:34:45;;;;;;;;;;;;;;;20.40;55.33;101503.69;4966704;28;20440;-61
2022/10/27 11:37:34;;;;;;;;;;;;;;;20.42;55.57;101506.28;4971729;28;19925;-62
2022/10/27 11:40:05;;;;;;;;;;;;;;;20.50;55.25;101505.97;4973963;28;19922;-62
2022/10/27 11:42:37;;;;;;;;;;;;;;;20.47;55.75;101504.31;4973505;28;20133;-61
2022/10/27 11:45:37;;;;;;;;;;;;;;;20.66;55.40;101507.00;4974808;28;19926;-62
2022/10/27 11:48:23;;;;;;;;;;;;;;;20.64;55.60;101506.22;4930182;29;20009;-61
2022/10/27 11:50:48;;;;;;;;;;;;;;;20.65;55.68;101503.47;4967244;28;19972;-63
2022/10/27 11:53:15;;;;;;;;;;;;;;;20.77;55.56;101501.19;4973660;28;20013;-62
2022/10/27 11:55:52;;;;;;;;;;;;;;;20.66;56.05;101499.00;4974478;28;19945;-62
2022/10/27 11:58:20;;;;;;;;;;;;;;;20.45;56.46;101505.31;4973763;28;19921;-62
2022/10/27 12:01:01;;;;;;;;;;;;;;;20.39;57.01;101501.97;4968073;28;20349;-62
2022/10/27 12:03:43;;;;;;;;;;;;;;;20.34;56.83;101506.63;4974100;28;19926;-62
2022/10/27 12:06:29;;;;;;;;;;;;;;;20.23;56.99;101511.59;4973795;28;19918;-62
2022/10/27 12:09:01;;;;;;;;;;;;;;;20.13;57.38;101504.94;4973588;28;19926;-62
2022/10/27 12:11:27;;;;;;;;;;;;;;;20.07;57.60;101507.88;4974104;28;19948;-62
2022/10/27 12:14:02;;;;;;;;;;;;;;;20.20;57.28;101505.53;4973543;28;20374;-62
2022/10/27 12:16:33;;;;;;;;;;;;;;;20.17;57.40;101510.06;4973213;28;19933;-62
2022/10/27 12:19:11;;;;;;;;;;;;;;;20.27;57.35;101502.53;4973927;28;19925;-63
2022/10/27 12:21:41;;;;;;;;;;;;;;;20.25;57.53;101499.03;4955859;29;19914;-62
2022/10/27 12:24:09;;;;;;;;;;;;;;;20.21;57.39;101502.78;4962778;28;19918;-62
2022/10/27 12:26:40;;;;;;;;;;;;;;;20.26;57.49;101503.44;4974463;28;20266;-63
2022/10/27 12:29:06;;;;;;;;;;;;;;;20.15;57.64;101503.94;4973064;28;19933;-61
2022/10/27 12:31:33;;;;;;;;;;;;;;;20.27;57.49;101491.84;4974070;28;19961;-62
2022/10/27 12:34:00;;;;;;;;;;;;;;;20.27;57.74;101496.31;4974006;28;19962;-62
2022/10/27 12:36:29;;;;;;;;;;;;;;;20.21;57.69;101497.44;4971702;28;19925;-62
2022/10/27 12:39:18;;;;;;;;;;;;;;;20.28;57.73;101488.25;4969887;28;20396;-62